Zhangwu, China
Current Conditions -  °F | °C
As of 4:30 PM on Friday 24 Oct 2014 (Local Time) from ZYTX Reporting Station
Haze Haze  
Wind Chill: 68°   Ceiling: 4000
Heat Index: 68°   Visibility: 2.5mi
Dew Point: 54°   Wind: 11mph
Humidity: 60%   Direction: 190°S
Pressure: 29.8"   Gusts: NA
Location:  42.42°N, 122.53°E
Report Text: ZYTX 240830Z 19005MPS 4000 HZ OVC040 20/12 Q1009 NOSIG
Loading
Personal Weather Stations






























Interactive Weather Map
Tropical Storm Tracking
New forecast layout! Learn more

10-Day Weather Forecast

Advertisements
Track Severe Weather on mobile